createdAt,value
2023-05-01T00:00:23.990Z,101854.72
2023-05-01T00:02:50.482Z,101848.31
2023-05-01T00:05:17.133Z,101841.50
2023-05-01T00:07:43.494Z,101836.75
2023-05-01T00:10:09.956Z,101838.25
2023-05-01T00:12:36.362Z,101826.03
2023-05-01T00:15:02.768Z,101816.34
2023-05-01T00:17:31.021Z,101819.47
2023-05-01T00:19:58.179Z,101823.56
2023-05-01T00:22:24.916Z,101817.53
2023-05-01T00:24:51.682Z,101816.91
2023-05-01T00:27:18.105Z,101814.22
2023-05-01T00:29:44.530Z,101819.81
2023-05-01T00:32:11.130Z,101809.81
2023-05-01T00:34:37.787Z,101812.53
2023-05-01T00:37:04.174Z,101817.94
2023-05-01T00:39:30.555Z,101808.44
2023-05-01T00:41:57.550Z,101804.84
2023-05-01T00:44:23.976Z,101800.03
2023-05-01T00:46:50.390Z,101800.66
2023-05-01T00:49:17.670Z,101792.44
2023-05-01T00:51:44.504Z,101797.03
2023-05-01T00:54:10.916Z,101795.97
2023-05-01T00:56:37.537Z,101785.75
2023-05-01T00:59:04.283Z,101793.59
2023-05-01T01:01:30.756Z,101787.78
2023-05-01T01:03:57.353Z,101787.91
2023-05-01T01:06:42.895Z,101791.25
2023-05-01T01:09:34.188Z,101782.38
2023-05-01T01:12:11.519Z,101771.69
2023-05-01T01:15:05.535Z,101788.63
2023-05-01T01:18:05.120Z,101773.44
2023-05-01T01:20:35.131Z,101761.59
2023-05-01T01:23:13.951Z,101772.06
2023-05-01T01:26:00.144Z,101769.41
2023-05-01T01:28:46.423Z,101766.84
2023-05-01T01:31:29.788Z,101768.91
2023-05-01T01:34:04.108Z,101761.78
2023-05-01T01:36:49.769Z,101759.63
2023-05-01T01:39:25.710Z,101748.75
2023-05-01T01:41:53.679Z,101750.91
2023-05-01T01:44:24.399Z,101751.41
2023-05-01T01:46:51.467Z,101745.66
2023-05-01T01:49:20.900Z,101740.28
2023-05-01T01:51:47.596Z,101737.94
2023-05-01T01:54:13.910Z,101736.72
2023-05-01T01:56:40.582Z,101729.88
2023-05-01T01:59:06.874Z,101728.88
2023-05-01T02:01:33.200Z,101721.94
2023-05-01T02:04:00.449Z,101719.25
2023-05-01T02:06:26.941Z,101720.38
2023-05-01T02:08:53.300Z,101713.84
2023-05-01T02:11:20.859Z,101709.44
2023-05-01T02:13:47.780Z,101710.94
2023-05-01T02:16:14.524Z,101706.94
2023-05-01T02:18:41.515Z,101704.34
2023-05-01T02:21:08.296Z,101699.72
2023-05-01T02:23:34.605Z,101701.97
2023-05-01T02:26:01.087Z,101702.66
2023-05-01T02:28:27.494Z,101695.78
2023-05-01T02:30:53.798Z,101695.22
2023-05-01T02:33:20.116Z,101690.41
2023-05-01T02:35:49.530Z,101688.09
2023-05-01T02:38:16.209Z,101692.06
2023-05-01T02:40:47.277Z,101678.38
2023-05-01T02:43:13.971Z,101675.19
2023-05-01T02:45:40.450Z,101681.28
2023-05-01T02:48:07.319Z,101677.41
2023-05-01T02:50:33.704Z,101677.97
2023-05-01T02:53:00.219Z,101667.78
2023-05-01T02:55:26.653Z,101669.50
2023-05-01T02:57:52.977Z,101666.97
2023-05-01T03:00:19.618Z,101653.25
2023-05-01T03:02:46.143Z,101651.72
2023-05-01T03:05:12.523Z,101651.41
2023-05-01T03:07:38.906Z,101646.22
2023-05-01T03:10:05.568Z,101643.69
2023-05-01T03:12:31.866Z,101637.81
2023-05-01T03:14:58.223Z,101635.28
2023-05-01T03:17:24.702Z,101636.88
2023-05-01T03:19:51.564Z,101627.59
2023-05-01T03:22:17.960Z,101631.09
2023-05-01T03:24:44.259Z,101629.25
2023-05-01T03:27:10.960Z,101627.59
2023-05-01T03:29:38.074Z,101625.94
2023-05-01T03:32:04.891Z,101619.91
2023-05-01T03:34:31.324Z,101617.78
2023-05-01T03:36:57.927Z,101619.91
2023-05-01T03:39:24.197Z,101619.47
2023-05-01T03:41:50.496Z,101616.44
2023-05-01T03:44:16.771Z,101612.72
2023-05-01T03:46:44.400Z,101613.63
2023-05-01T03:49:10.774Z,101603.69
2023-05-01T03:51:37.329Z,101610.25
2023-05-01T03:54:03.694Z,101608.41
2023-05-01T03:56:35.803Z,101594.56
2023-05-01T03:59:02.287Z,101591.81
2023-05-01T04:01:28.645Z,101585.25
2023-05-01T04:03:55.212Z,101594.44
2023-05-01T04:06:22.821Z,101593.31
2023-05-01T04:08:49.277Z,101592.03
2023-05-01T04:11:15.611Z,101594.38
2023-05-01T04:13:42.141Z,101595.97
2023-05-01T04:16:08.536Z,101591.91
2023-05-01T04:18:35.059Z,101593.81
2023-05-01T04:21:01.363Z,101595.56
2023-05-01T04:23:27.899Z,101600.13
2023-05-01T04:25:54.206Z,101597.63
2023-05-01T04:28:20.530Z,101600.22
2023-05-01T04:30:46.929Z,101601.53
2023-05-01T04:33:16.880Z,101594.13
2023-05-01T04:35:43.629Z,101590.19
2023-05-01T04:38:12.917Z,101589.81
2023-05-01T04:40:39.216Z,101588.81
2023-05-01T04:43:05.568Z,101581.91
2023-05-01T04:45:32.046Z,101584.81
2023-05-01T04:47:58.368Z,101584.25
2023-05-01T04:50:24.669Z,101575.91
2023-05-01T04:52:50.997Z,101572.44
2023-05-01T04:55:17.416Z,101564.81
2023-05-01T04:57:43.744Z,101576.19
2023-05-01T05:00:10.348Z,101571.84
2023-05-01T05:02:37.249Z,101571.25
2023-05-01T05:05:03.748Z,101569.13
2023-05-01T05:07:30.288Z,101572.38
2023-05-01T05:09:57.015Z,101569.91
2023-05-01T05:12:23.543Z,101570.97
2023-05-01T05:14:49.946Z,101571.81
2023-05-01T05:17:16.281Z,101569.78
2023-05-01T05:19:42.562Z,101571.94
2023-05-01T05:22:08.948Z,101572.81
2023-05-01T05:24:35.235Z,101571.19
2023-05-01T05:27:01.549Z,101566.97
2023-05-01T05:29:27.819Z,101570.44
2023-05-01T05:31:54.252Z,101574.22
2023-05-01T05:34:20.689Z,101566.97
2023-05-01T05:36:47.224Z,101567.00
2023-05-01T05:39:13.833Z,101567.00
2023-05-01T05:41:40.199Z,101566.88
2023-05-01T05:44:06.494Z,101561.72
2023-05-01T05:46:32.890Z,101554.41
2023-05-01T05:48:59.280Z,101550.94
2023-05-01T05:51:25.589Z,101557.13
2023-05-01T05:53:52.007Z,101553.44
2023-05-01T05:56:18.307Z,101548.00
2023-05-01T05:58:44.602Z,101558.06
2023-05-01T06:01:11.672Z,101558.72
2023-05-01T06:03:38.255Z,101556.06
2023-05-01T06:06:04.920Z,101545.69
2023-05-01T06:08:31.470Z,101555.81
2023-05-01T06:10:58.869Z,101555.53
2023-05-01T06:13:25.438Z,101551.00
2023-05-01T06:15:52.267Z,101548.50
2023-05-01T06:18:18.674Z,101546.13
2023-05-01T06:20:45.288Z,101544.78
2023-05-01T06:23:13.709Z,101538.78
2023-05-01T06:25:40.536Z,101547.50
2023-05-01T06:28:06.929Z,101546.97
2023-05-01T06:30:33.218Z,101535.78
2023-05-01T06:32:59.586Z,101544.16
2023-05-01T06:35:25.998Z,101546.75
2023-05-01T06:37:52.324Z,101543.84
2023-05-01T06:40:18.589Z,101538.75
2023-05-01T06:42:44.900Z,101544.34
2023-05-01T06:45:11.214Z,101540.72
2023-05-01T06:47:37.621Z,101536.75
2023-05-01T06:50:05.723Z,101528.16
2023-05-01T06:52:32.253Z,101528.63
2023-05-01T06:54:58.557Z,101533.41
2023-05-01T06:57:24.888Z,101527.78
2023-05-01T06:59:51.170Z,101518.84
2023-05-01T07:02:17.532Z,101522.34
2023-05-01T07:04:44.459Z,101524.66
2023-05-01T07:07:10.806Z,101525.47
2023-05-01T07:09:37.320Z,101525.59
2023-05-01T07:12:03.807Z,101519.41
2023-05-01T07:14:30.103Z,101508.66
2023-05-01T07:16:56.506Z,101510.06
2023-05-01T07:19:22.887Z,101511.09
2023-05-01T07:21:49.428Z,101504.22
2023-05-01T07:24:16.782Z,101509.19
2023-05-01T07:26:43.150Z,101506.66
2023-05-01T07:29:09.779Z,101512.38
2023-05-01T07:31:36.356Z,101502.69
2023-05-01T07:34:02.715Z,101493.81
2023-05-01T07:36:29.434Z,101497.56
2023-05-01T07:38:56.644Z,101501.75
2023-05-01T07:41:25.038Z,101498.50
2023-05-01T07:43:51.345Z,101497.78
2023-05-01T07:46:17.794Z,101497.28
2023-05-01T07:48:44.453Z,101492.31
2023-05-01T07:51:10.762Z,101496.88
2023-05-01T07:53:37.067Z,101489.94
2023-05-01T07:56:07.607Z,101491.44
2023-05-01T07:58:34.400Z,101488.16
2023-05-01T08:01:00.700Z,101483.91
2023-05-01T08:03:30.521Z,101478.38
2023-05-01T08:05:57.127Z,101476.25
2023-05-01T08:08:23.587Z,101478.63
2023-05-01T08:10:50.811Z,101484.13
2023-05-01T08:13:17.179Z,101486.38
2023-05-01T08:15:43.594Z,101488.69
2023-05-01T08:18:09.988Z,101478.25
2023-05-01T08:20:36.527Z,101479.91
2023-05-01T08:23:02.838Z,101479.31
2023-05-01T08:25:29.724Z,101473.72
2023-05-01T08:27:56.306Z,101465.72
2023-05-01T08:30:22.647Z,101473.38
2023-05-01T08:32:49.207Z,101465.88
2023-05-01T08:35:15.648Z,101477.72
2023-05-01T08:37:42.205Z,101472.56
2023-05-01T08:40:09.179Z,101468.88
2023-05-01T08:42:36.734Z,101464.16
2023-05-01T08:45:03.482Z,101456.38
2023-05-01T08:47:30.470Z,101461.09
2023-05-01T08:49:57.115Z,101466.09
2023-05-01T08:52:23.706Z,101464.56
2023-05-01T08:54:50.084Z,101455.09
2023-05-01T08:57:16.396Z,101452.41
2023-05-01T08:59:42.722Z,101446.91
2023-05-01T09:02:09.547Z,101444.47
2023-05-01T09:04:39.671Z,101442.84
2023-05-01T09:07:06.145Z,101444.88
2023-05-01T09:09:33.187Z,101431.66
2023-05-01T09:12:13.554Z,101439.81
2023-05-01T09:14:39.861Z,101443.78
2023-05-01T09:17:06.194Z,101431.72
2023-05-01T09:19:32.740Z,101434.06
2023-05-01T09:21:59.052Z,101440.28
2023-05-01T09:24:25.556Z,101438.69
2023-05-01T09:26:52.259Z,101439.75
2023-05-01T09:29:37.062Z,101435.59
2023-05-01T09:32:13.157Z,101437.03
2023-05-01T09:34:39.889Z,101440.38
2023-05-01T09:37:06.467Z,101429.00
2023-05-01T09:39:32.900Z,101429.13
2023-05-01T09:41:59.250Z,101434.16
2023-05-01T09:44:26.788Z,101434.69
2023-05-01T09:46:53.374Z,101428.03
2023-05-01T09:49:19.739Z,101435.66
2023-05-01T09:51:46.163Z,101423.19
2023-05-01T09:54:19.568Z,101424.78
2023-05-01T09:56:47.041Z,101425.75
2023-05-01T09:59:20.258Z,101420.88
2023-05-01T10:01:48.136Z,101421.72
2023-05-01T10:04:14.568Z,101415.88
2023-05-01T10:06:41.203Z,101416.22
2023-05-01T10:09:09.420Z,101423.91
2023-05-01T10:11:48.402Z,101417.78
2023-05-01T10:14:14.741Z,101418.56
2023-05-01T10:16:41.223Z,101410.88
2023-05-01T10:19:07.770Z,101407.69
2023-05-01T10:21:35.126Z,101412.34
2023-05-01T10:24:03.719Z,101404.34
2023-05-01T10:26:30.003Z,101409.22
2023-05-01T10:28:59.502Z,101407.00
2023-05-01T10:31:29.609Z,101402.84
2023-05-01T10:33:56.134Z,101398.72
2023-05-01T10:36:34.034Z,101398.41
2023-05-01T10:39:00.736Z,101405.81
2023-05-01T10:41:45.983Z,101409.59
2023-05-01T10:44:27.811Z,101401.78
2023-05-01T10:46:54.812Z,101407.91
2023-05-01T10:49:21.739Z,101400.50
2023-05-01T10:51:58.024Z,101391.56
2023-05-01T10:54:24.627Z,101390.28
2023-05-01T10:56:51.088Z,101382.44
2023-05-01T10:59:17.769Z,101388.06
2023-05-01T11:01:53.492Z,101387.25
2023-05-01T11:04:22.776Z,101377.19
2023-05-01T11:06:58.367Z,101382.06
2023-05-01T11:09:43.589Z,101373.50
2023-05-01T11:12:11.029Z,101371.59
2023-05-01T11:14:52.443Z,101359.66
2023-05-01T11:17:37.760Z,101345.91
2023-05-01T11:20:05.036Z,101356.94
2023-05-01T11:22:31.940Z,101355.16
2023-05-01T11:24:58.754Z,101364.53
2023-05-01T11:27:25.595Z,101358.91
2023-05-01T11:29:51.951Z,101357.03
2023-05-01T11:32:19.271Z,101355.75
2023-05-01T11:34:46.981Z,101353.34
2023-05-01T11:37:13.356Z,101350.31
2023-05-01T11:39:46.664Z,101349.19
2023-05-01T11:42:13.162Z,101337.72
2023-05-01T11:44:39.523Z,101337.72
2023-05-01T11:47:07.342Z,101347.31
2023-05-01T11:49:33.726Z,101340.06
2023-05-01T11:52:00.144Z,101333.22
2023-05-01T11:54:26.581Z,101329.78
2023-05-01T11:57:00.150Z,101335.06
2023-05-01T11:59:26.988Z,101331.03
2023-05-01T12:01:53.555Z,101331.41
2023-05-01T12:04:23.931Z,101321.44
2023-05-01T12:06:51.014Z,101322.94
2023-05-01T12:09:18.545Z,101320.56
2023-05-01T12:11:46.410Z,101326.66
2023-05-01T12:14:14.441Z,101324.94
2023-05-01T12:16:41.083Z,101311.22
2023-05-01T12:19:07.679Z,101320.72
2023-05-01T12:21:34.873Z,101317.47
2023-05-01T12:24:07.975Z,101311.44
2023-05-01T12:26:34.319Z,101311.22
2023-05-01T12:29:01.937Z,101313.59
2023-05-01T12:31:28.884Z,101304.22
2023-05-01T12:33:57.576Z,101300.22
2023-05-01T12:36:29.950Z,101296.78
2023-05-01T12:39:01.462Z,101295.72
2023-05-01T12:41:50.728Z,101282.09
2023-05-01T12:44:25.409Z,101285.31
2023-05-01T12:47:04.667Z,101292.47
2023-05-01T12:49:32.462Z,101281.81
2023-05-01T12:52:03.517Z,101283.31
2023-05-01T12:54:32.133Z,101285.50
2023-05-01T12:57:08.432Z,101281.09
2023-05-01T12:59:39.137Z,101272.13
2023-05-01T13:02:15.762Z,101273.78
2023-05-01T13:04:50.264Z,101273.19
2023-05-01T13:07:18.897Z,101269.19
2023-05-01T13:10:11.877Z,101266.25
2023-05-01T13:12:44.569Z,101274.44
2023-05-01T13:15:21.563Z,101263.00
2023-05-01T13:17:48.414Z,101266.16
2023-05-01T13:20:15.450Z,101263.66
2023-05-01T13:22:42.076Z,101268.25
2023-05-01T13:25:16.053Z,101268.38
2023-05-01T13:27:48.560Z,101260.44
2023-05-01T13:30:16.758Z,101270.25
2023-05-01T13:32:43.286Z,101269.53
2023-05-01T13:35:10.246Z,101269.59
2023-05-01T13:37:36.768Z,101256.47
2023-05-01T13:40:03.594Z,101259.25
2023-05-01T13:42:30.010Z,101257.25
2023-05-01T13:44:57.753Z,101248.38
2023-05-01T13:47:28.295Z,101251.38
2023-05-01T13:49:54.766Z,101255.94
2023-05-01T13:52:21.222Z,101249.13
2023-05-01T13:54:48.241Z,101249.28
2023-05-01T13:57:15.987Z,101250.22
2023-05-01T13:59:43.976Z,101244.75
2023-05-01T14:02:24.211Z,101242.91
2023-05-01T14:04:50.815Z,101245.53
2023-05-01T14:07:23.103Z,101241.28
2023-05-01T14:09:54.899Z,101241.22
2023-05-01T14:12:29.253Z,101231.34
2023-05-01T14:14:56.412Z,101238.31
2023-05-01T14:17:30.086Z,101231.34
2023-05-01T14:19:56.566Z,101230.53
2023-05-01T14:22:23.028Z,101226.34
2023-05-01T14:24:50.103Z,101215.25
2023-05-01T14:27:16.550Z,101218.69
2023-05-01T14:29:46.905Z,101215.75
2023-05-01T14:32:13.348Z,101210.97
2023-05-01T14:34:41.901Z,101218.31
2023-05-01T14:37:12.048Z,101220.38
2023-05-01T14:39:39.403Z,101209.16
2023-05-01T14:42:06.100Z,101218.31
2023-05-01T14:44:32.650Z,101218.69
2023-05-01T14:46:59.236Z,101214.31
2023-05-01T14:49:26.045Z,101222.44
2023-05-01T14:51:53.544Z,101225.78
2023-05-01T14:54:21.131Z,101214.31
2023-05-01T14:56:48.309Z,101227.06
2023-05-01T14:59:15.056Z,101225.72
2023-05-01T15:01:41.653Z,101217.19
2023-05-01T15:04:08.357Z,101217.34
2023-05-01T15:06:35.048Z,101217.22
2023-05-01T15:09:14.017Z,101219.69
2023-05-01T15:11:40.387Z,101230.72
2023-05-01T15:14:06.777Z,101236.09
2023-05-01T15:16:33.217Z,101220.13
2023-05-01T15:18:59.707Z,101226.03
2023-05-01T15:21:26.246Z,101229.75
2023-05-01T15:23:52.724Z,101225.66
2023-05-01T15:26:20.555Z,101223.78
2023-05-01T15:28:47.783Z,101221.19
2023-05-01T15:31:14.544Z,101227.84
2023-05-01T15:33:41.259Z,101228.59
2023-05-01T15:36:07.865Z,101224.06
2023-05-01T15:38:34.581Z,101219.53
2023-05-01T15:41:00.990Z,101224.94
2023-05-01T15:43:27.817Z,101228.91
2023-05-01T15:45:57.963Z,101220.59
2023-05-01T15:48:26.172Z,101215.78
2023-05-01T15:50:52.714Z,101213.91
2023-05-01T15:53:20.926Z,101217.50
2023-05-01T15:55:47.290Z,101224.06
2023-05-01T15:58:14.758Z,101222.94
2023-05-01T16:00:41.311Z,101216.56
2023-05-01T16:03:08.478Z,101221.00
2023-05-01T16:05:36.657Z,101217.94
2023-05-01T16:08:05.262Z,101229.13
2023-05-01T16:10:37.785Z,101227.25
2023-05-01T16:13:06.282Z,101217.75
2023-05-01T16:15:33.222Z,101229.31
2023-05-01T16:18:01.396Z,101236.47
2023-05-01T16:20:29.175Z,101239.06
2023-05-01T16:22:55.615Z,101239.31
2023-05-01T16:25:22.071Z,101245.06
2023-05-01T16:27:48.504Z,101243.97
2023-05-01T16:30:15.004Z,101244.75
2023-05-01T16:32:42.355Z,101246.53
2023-05-01T16:35:17.390Z,101253.97
2023-05-01T16:37:44.035Z,101246.06
2023-05-01T16:40:11.623Z,101255.03
2023-05-01T16:42:38.824Z,101256.44
2023-05-01T16:45:08.505Z,101253.09
2023-05-01T16:47:35.191Z,101261.66
2023-05-01T16:50:02.134Z,101258.38
2023-05-01T16:52:28.763Z,101273.28
2023-05-01T16:54:56.516Z,101262.78
2023-05-01T16:57:23.636Z,101276.97
2023-05-01T16:59:49.928Z,101274.09
2023-05-01T17:02:16.343Z,101277.28
2023-05-01T17:04:42.758Z,101274.59
2023-05-01T17:07:09.182Z,101285.94
2023-05-01T17:09:35.612Z,101293.13
2023-05-01T17:12:03.673Z,101293.56
2023-05-01T17:14:31.007Z,101280.69
2023-05-01T17:17:00.414Z,101280.75
2023-05-01T17:19:26.856Z,101280.75
2023-05-01T17:21:53.608Z,101298.50
2023-05-01T17:24:20.193Z,101293.97
2023-05-01T17:26:46.971Z,101294.38
2023-05-01T17:29:13.318Z,101311.69
2023-05-01T17:31:39.688Z,101310.22
2023-05-01T17:34:06.121Z,101302.66
2023-05-01T17:36:32.580Z,101311.50
2023-05-01T17:39:01.317Z,101309.78
2023-05-01T17:41:27.775Z,101311.00
2023-05-01T17:43:55.335Z,101301.63
2023-05-01T17:46:22.002Z,101306.31
2023-05-01T17:48:51.837Z,101314.50
2023-05-01T17:51:18.278Z,101323.31
2023-05-01T17:53:44.677Z,101333.88
2023-05-01T17:56:11.242Z,101314.00
2023-05-01T17:58:37.697Z,101330.56
2023-05-01T18:01:07.041Z,101333.06
2023-05-01T18:03:33.778Z,101337.47
2023-05-01T18:06:02.570Z,101326.16
2023-05-01T18:08:29.351Z,101330.84
2023-05-01T18:10:55.921Z,101337.28
2023-05-01T18:13:27.835Z,101334.53
2023-05-01T18:15:57.550Z,101343.69
2023-05-01T18:18:24.117Z,101342.63
2023-05-01T18:20:50.562Z,101345.69
2023-05-01T18:23:20.035Z,101347.69
2023-05-01T18:25:46.473Z,101344.16
2023-05-01T18:28:15.768Z,101345.69
2023-05-01T18:30:42.154Z,101349.16
2023-05-01T18:33:08.638Z,101349.34
2023-05-01T18:35:38.152Z,101348.66
2023-05-01T18:38:04.541Z,101356.06
2023-05-01T18:40:31.718Z,101355.63
2023-05-01T18:42:58.714Z,101359.53
2023-05-01T18:45:25.168Z,101358.75
2023-05-01T18:47:51.599Z,101357.78
2023-05-01T18:50:21.736Z,101361.28
2023-05-01T18:52:48.682Z,101355.84
2023-05-01T18:55:15.401Z,101359.53
2023-05-01T18:57:43.536Z,101353.72
2023-05-01T19:00:12.945Z,101354.09
2023-05-01T19:02:39.799Z,101358.31
2023-05-01T19:05:11.151Z,101358.53
2023-05-01T19:07:38.479Z,101360.00
2023-05-01T19:10:05.291Z,101363.25
2023-05-01T19:12:32.345Z,101369.28
2023-05-01T19:14:58.833Z,101365.91
2023-05-01T19:17:25.469Z,101379.53
2023-05-01T19:19:51.901Z,101380.06
2023-05-01T19:22:19.503Z,101381.34
2023-05-01T19:24:45.943Z,101386.34
2023-05-01T19:27:12.345Z,101390.09
2023-05-01T19:29:39.652Z,101398.94
2023-05-01T19:32:07.033Z,101402.06
2023-05-01T19:34:33.510Z,101400.13
2023-05-01T19:37:02.184Z,101391.06
2023-05-01T19:39:29.157Z,101398.03
2023-05-01T19:41:55.605Z,101404.72
2023-05-01T19:44:22.106Z,101401.78
2023-05-01T19:46:48.773Z,101407.28
2023-05-01T19:49:15.162Z,101400.09
2023-05-01T19:51:41.573Z,101405.31
2023-05-01T19:54:07.963Z,101398.94
2023-05-01T19:56:34.597Z,101396.91
2023-05-01T19:59:00.979Z,101402.16
2023-05-01T20:01:29.833Z,101397.47
2023-05-01T20:03:56.347Z,101404.84
2023-05-01T20:06:22.916Z,101393.50
2023-05-01T20:08:49.318Z,101404.38
2023-05-01T20:11:15.739Z,101411.06
2023-05-01T20:13:42.330Z,101413.78
2023-05-01T20:16:10.150Z,101421.22
2023-05-01T20:18:37.218Z,101410.09
2023-05-01T20:21:03.664Z,101415.53
2023-05-01T20:23:30.054Z,101418.25
2023-05-01T20:25:56.666Z,101419.50
2023-05-01T20:28:23.488Z,101423.41
2023-05-01T20:30:50.006Z,101422.91
2023-05-01T20:33:17.646Z,101429.56
2023-05-01T20:35:45.145Z,101430.41
2023-05-01T20:38:11.589Z,101432.88
2023-05-01T20:40:42.458Z,101438.84
2023-05-01T20:43:09.195Z,101446.00
2023-05-01T20:45:35.662Z,101440.31
2023-05-01T20:48:02.168Z,101442.06
2023-05-01T20:50:29.192Z,101444.53
2023-05-01T20:52:56.442Z,101443.03
2023-05-01T20:55:23.787Z,101443.28
2023-05-01T20:57:50.282Z,101439.84
2023-05-01T21:00:17.240Z,101447.72
2023-05-01T21:02:43.926Z,101451.47
2023-05-01T21:05:10.836Z,101448.22
2023-05-01T21:07:38.416Z,101447.22
2023-05-01T21:10:06.695Z,101446.25
2023-05-01T21:12:33.090Z,101450.75
2023-05-01T21:14:59.503Z,101441.81
2023-05-01T21:17:26.730Z,101445.28
2023-05-01T21:19:54.001Z,101446.25
2023-05-01T21:22:22.004Z,101441.53
2023-05-01T21:24:54.049Z,101452.44
2023-05-01T21:27:21.072Z,101450.88
2023-05-01T21:30:01.168Z,101460.84
2023-05-01T21:32:32.636Z,101460.41
2023-05-01T21:35:02.654Z,101454.59
2023-05-01T21:37:29.396Z,101457.59
2023-05-01T21:39:58.947Z,101449.22
2023-05-01T21:42:30.537Z,101448.25
2023-05-01T21:45:00.685Z,101450.94
2023-05-01T21:47:27.917Z,101456.66
2023-05-01T21:49:57.945Z,101459.88
2023-05-01T21:52:24.691Z,101458.63
2023-05-01T21:54:51.209Z,101467.81
2023-05-01T21:57:17.672Z,101461.59
2023-05-01T21:59:45.059Z,101475.97
2023-05-01T22:02:11.913Z,101472.53
2023-05-01T22:04:38.692Z,101481.13
2023-05-01T22:07:05.804Z,101476.59
2023-05-01T22:09:32.884Z,101469.13
2023-05-01T22:11:59.306Z,101471.84
2023-05-01T22:14:33.510Z,101469.63
2023-05-01T22:17:10.407Z,101475.63
2023-05-01T22:19:37.712Z,101484.97
2023-05-01T22:22:04.151Z,101493.44
2023-05-01T22:24:31.472Z,101488.06
2023-05-01T22:26:57.860Z,101489.41
2023-05-01T22:29:24.299Z,101503.66
2023-05-01T22:31:50.777Z,101495.91
2023-05-01T22:34:17.276Z,101505.81
2023-05-01T22:36:43.638Z,101493.19
2023-05-01T22:39:10.010Z,101499.75
2023-05-01T22:41:36.393Z,101497.78
2023-05-01T22:44:02.860Z,101504.50
2023-05-01T22:46:29.277Z,101498.66
2023-05-01T22:48:55.668Z,101503.75
2023-05-01T22:51:22.154Z,101494.53
2023-05-01T22:53:48.550Z,101511.25
2023-05-01T22:56:15.036Z,101509.22
2023-05-01T22:58:41.427Z,101502.06
2023-05-01T23:01:08.329Z,101506.81
2023-05-01T23:03:37.205Z,101514.13
2023-05-01T23:06:06.423Z,101513.00
2023-05-01T23:08:34.076Z,101506.34
2023-05-01T23:11:00.557Z,101512.38
2023-05-01T23:13:28.043Z,101520.47
2023-05-01T23:15:54.487Z,101525.53
2023-05-01T23:18:23.682Z,101523.06
2023-05-01T23:20:51.585Z,101528.72
2023-05-01T23:23:20.067Z,101534.34
2023-05-01T23:25:48.923Z,101535.34
2023-05-01T23:28:20.512Z,101523.88
2023-05-01T23:30:59.389Z,101533.16
2023-05-01T23:33:27.827Z,101528.13
2023-05-01T23:35:54.481Z,101520.38
2023-05-01T23:38:20.958Z,101530.84
2023-05-01T23:40:47.416Z,101535.41
2023-05-01T23:43:13.947Z,101528.00
2023-05-01T23:45:40.403Z,101535.25
2023-05-01T23:48:07.346Z,101532.47
2023-05-01T23:50:33.828Z,101528.97
2023-05-01T23:53:05.373Z,101525.63
2023-05-01T23:55:31.762Z,101532.78
2023-05-01T23:57:58.324Z,101535.72
